createdAt,value
2018-09-28T00:01:13.962Z,7.03
2018-09-28T00:03:41.165Z,9.77
2018-09-28T00:06:08.423Z,10.17
2018-09-28T00:08:35.629Z,11.33
2018-09-28T00:11:02.903Z,9.63
2018-09-28T00:13:30.248Z,11.93
2018-09-28T00:15:57.448Z,6.13
2018-09-28T00:18:24.657Z,8.50
2018-09-28T00:20:51.959Z,7.73
2018-09-28T00:23:19.150Z,10.73
2018-09-28T00:25:46.391Z,9.30
2018-09-28T00:28:13.967Z,16.03
2018-09-28T00:30:41.204Z,8.93
2018-09-28T00:33:08.411Z,12.20
2018-09-28T00:35:35.719Z,10.17
2018-09-28T00:38:02.976Z,13.00
2018-09-28T00:40:30.222Z,9.83
2018-09-28T00:42:57.527Z,14.87
2018-09-28T00:45:24.727Z,11.47
2018-09-28T00:47:52.052Z,10.77
2018-09-28T00:50:19.314Z,16.73
2018-09-28T00:52:46.551Z,15.97
2018-09-28T00:55:13.803Z,15.63
2018-09-28T00:57:41.545Z,8.60
2018-09-28T01:00:08.723Z,13.83
2018-09-28T01:02:35.920Z,12.07
2018-09-28T01:05:03.265Z,14.07
2018-09-28T01:07:30.491Z,14.87
2018-09-28T01:09:57.683Z,13.50
2018-09-28T01:12:24.990Z,16.17
2018-09-28T01:14:52.225Z,18.70
2018-09-28T01:17:19.480Z,11.57
2018-09-28T01:19:46.913Z,17.37
2018-09-28T01:22:14.241Z,10.33
2018-09-28T01:24:41.541Z,19.10
2018-09-28T01:27:08.934Z,14.00
2018-09-28T01:29:36.122Z,10.90
2018-09-28T01:32:03.612Z,14.87
2018-09-28T01:34:31.671Z,15.53
2018-09-28T01:36:58.891Z,13.07
2018-09-28T01:39:26.104Z,14.30
2018-09-28T01:41:53.344Z,13.83
2018-09-28T01:44:20.562Z,19.00
2018-09-28T01:46:47.805Z,15.90
2018-09-28T01:49:15.191Z,20.07
2018-09-28T01:51:42.403Z,19.30
2018-09-28T01:54:09.658Z,13.43
2018-09-28T01:56:36.974Z,13.80
2018-09-28T01:59:04.355Z,11.13
2018-09-28T02:01:31.548Z,16.97
2018-09-28T02:03:59.310Z,17.20
2018-09-28T02:06:26.503Z,14.63
2018-09-28T02:08:53.712Z,13.53
2018-09-28T02:11:20.949Z,15.20
2018-09-28T02:13:48.163Z,12.93
2018-09-28T02:16:15.554Z,11.80
2018-09-28T02:18:42.852Z,16.10
2018-09-28T02:21:10.059Z,18.10
2018-09-28T02:23:37.248Z,13.73
2018-09-28T02:26:04.709Z,14.30
2018-09-28T02:28:31.936Z,11.37
2018-09-28T02:30:59.153Z,10.07
2018-09-28T02:33:26.392Z,10.50
2018-09-28T02:35:53.602Z,16.63
2018-09-28T02:38:20.828Z,13.87
2018-09-28T02:40:48.107Z,8.73
2018-09-28T02:43:15.309Z,7.47
2018-09-28T02:45:42.514Z,11.30
2018-09-28T02:48:09.836Z,10.80
2018-09-28T02:50:37.033Z,13.87
2018-09-28T02:53:04.252Z,6.17
2018-09-28T02:55:31.585Z,12.83
2018-09-28T02:57:58.798Z,11.67
2018-09-28T03:00:26.003Z,10.77
2018-09-28T03:02:53.332Z,11.43
2018-09-28T03:05:20.508Z,10.17
2018-09-28T03:07:47.748Z,13.07
2018-09-28T03:10:15.002Z,14.23
2018-09-28T03:12:42.199Z,9.83
2018-09-28T03:15:09.388Z,11.33
2018-09-28T03:17:36.627Z,13.00
2018-09-28T03:20:03.827Z,9.20
2018-09-28T03:22:31.002Z,10.23
2018-09-28T03:24:58.239Z,11.70
2018-09-28T03:27:25.426Z,9.63
2018-09-28T03:29:52.638Z,7.43
2018-09-28T03:32:19.866Z,10.13
2018-09-28T03:34:47.051Z,13.83
2018-09-28T03:37:14.253Z,11.20
2018-09-28T03:39:41.549Z,7.43
2018-09-28T03:42:08.770Z,12.03
2018-09-28T03:44:35.983Z,10.87
2018-09-28T03:47:03.367Z,9.70
2018-09-28T03:49:30.584Z,12.73
2018-09-28T03:51:57.799Z,10.97
2018-09-28T03:54:25.091Z,13.10
2018-09-28T03:56:52.277Z,11.80
2018-09-28T03:59:19.464Z,12.53
2018-09-28T04:01:46.795Z,10.07
2018-09-28T04:04:13.993Z,11.83
2018-09-28T04:06:41.175Z,11.00
2018-09-28T04:09:09.680Z,11.50
2018-09-28T04:11:37.122Z,13.33
2018-09-28T04:14:04.311Z,13.23
2018-09-28T04:16:31.651Z,13.37
2018-09-28T04:18:58.845Z,13.47
2018-09-28T04:21:26.058Z,17.87
2018-09-28T04:23:53.312Z,12.67
2018-09-28T04:26:20.514Z,14.43
2018-09-28T04:28:47.715Z,9.67
2018-09-28T04:31:15.051Z,10.17
2018-09-28T04:33:42.255Z,13.57
2018-09-28T04:36:09.483Z,12.50
2018-09-28T04:38:37.395Z,8.10
2018-09-28T04:41:04.591Z,9.67
2018-09-28T04:43:31.817Z,15.63
2018-09-28T04:45:59.131Z,10.97
2018-09-28T04:48:26.334Z,11.87
2018-09-28T04:50:53.543Z,15.87
2018-09-28T04:53:20.867Z,17.87
2018-09-28T04:55:48.062Z,13.33
2018-09-28T04:58:15.259Z,12.43
2018-09-28T05:00:42.495Z,14.43
2018-09-28T05:03:09.700Z,9.63
2018-09-28T05:05:36.907Z,7.03
2018-09-28T05:08:04.168Z,11.13
2018-09-28T05:10:31.376Z,11.03
2018-09-28T05:12:58.568Z,6.57
2018-09-28T05:15:25.887Z,7.10
2018-09-28T05:17:54.026Z,10.13
2018-09-28T05:20:21.224Z,8.33
2018-09-28T05:22:48.572Z,10.37
2018-09-28T05:25:15.840Z,14.00
2018-09-28T05:27:42.987Z,10.80
2018-09-28T05:30:10.518Z,6.03
2018-09-28T05:32:37.919Z,10.63
2018-09-28T05:35:05.020Z,8.03
2018-09-28T05:37:32.255Z,8.80
2018-09-28T05:39:59.467Z,10.83
2018-09-28T05:42:26.658Z,9.10
2018-09-28T05:44:53.970Z,6.70
2018-09-28T05:47:21.174Z,11.53
2018-09-28T05:49:48.605Z,9.57
2018-09-28T05:52:15.951Z,9.90
2018-09-28T05:54:43.154Z,8.47
2018-09-28T05:57:10.376Z,9.57
2018-09-28T05:59:43.394Z,8.63
2018-09-28T06:02:16.348Z,8.73
2018-09-28T06:04:49.336Z,9.00
2018-09-28T06:07:16.543Z,7.40
2018-09-28T06:09:43.742Z,9.40
2018-09-28T06:12:11.039Z,9.53
2018-09-28T06:14:38.274Z,8.70
2018-09-28T06:17:05.876Z,5.03
2018-09-28T06:19:33.186Z,4.07
2018-09-28T06:22:00.402Z,6.70
2018-09-28T06:24:27.603Z,7.87
2018-09-28T06:26:55.036Z,10.80
2018-09-28T06:29:22.479Z,7.33
2018-09-28T06:31:49.679Z,7.10
2018-09-28T06:34:17.088Z,7.67
2018-09-28T06:36:44.285Z,8.63
2018-09-28T06:39:11.607Z,9.23
2018-09-28T06:41:38.924Z,6.07
2018-09-28T06:44:06.135Z,10.23
2018-09-28T06:46:33.352Z,12.20
2018-09-28T06:49:00.663Z,10.77
2018-09-28T06:51:27.920Z,6.77
2018-09-28T06:53:55.234Z,9.03
2018-09-28T06:56:22.521Z,9.33
2018-09-28T06:58:49.765Z,4.20
2018-09-28T07:01:16.958Z,6.70
2018-09-28T07:03:44.276Z,6.87
2018-09-28T07:06:11.462Z,7.27
2018-09-28T07:08:38.642Z,8.00
2018-09-28T07:11:07.085Z,10.27
2018-09-28T07:13:34.284Z,7.90
2018-09-28T07:16:01.489Z,14.23
2018-09-28T07:18:28.819Z,7.00
2018-09-28T07:20:56.041Z,7.67
2018-09-28T07:23:23.264Z,8.50
2018-09-28T07:25:50.623Z,11.63
2018-09-28T07:28:17.798Z,7.50
2018-09-28T07:30:45.017Z,8.20
2018-09-28T07:33:12.338Z,8.13
2018-09-28T07:35:39.533Z,12.60
2018-09-28T07:38:06.739Z,8.30
2018-09-28T07:40:34.024Z,10.10
2018-09-28T07:43:01.239Z,8.43
2018-09-28T07:45:28.472Z,7.67
2018-09-28T07:47:55.882Z,6.83
2018-09-28T07:50:23.044Z,13.63
2018-09-28T07:52:50.227Z,9.10
2018-09-28T07:55:17.583Z,11.87
2018-09-28T07:57:44.759Z,4.73
2018-09-28T08:00:11.976Z,5.93
2018-09-28T08:02:39.381Z,4.63
2018-09-28T08:05:06.597Z,3.47
2018-09-28T08:07:33.809Z,2.07
2018-09-28T08:10:01.103Z,5.20
2018-09-28T08:12:28.295Z,2.83
2018-09-28T08:14:55.752Z,2.53
2018-09-28T08:17:23.099Z,0.77
2018-09-28T08:19:50.290Z,2.07
2018-09-28T08:22:17.489Z,1.40
2018-09-28T08:24:44.925Z,1.63
2018-09-28T08:27:12.024Z,1.73
2018-09-28T08:29:39.231Z,2.43
2018-09-28T08:32:06.815Z,2.87
2018-09-28T08:37:08.098Z,3.97
2018-09-28T08:39:35.538Z,1.93
2018-09-28T08:42:02.783Z,2.93
2018-09-28T08:44:30.102Z,4.67
2018-09-28T08:46:57.310Z,4.03
2018-09-28T08:49:24.543Z,1.43
2018-09-28T08:51:51.873Z,2.03
2018-09-28T08:54:19.069Z,3.57
2018-09-28T08:56:46.286Z,2.47
2018-09-28T08:59:13.699Z,1.10
2018-09-28T09:01:40.880Z,3.43
2018-09-28T09:04:08.081Z,3.30
2018-09-28T09:06:35.416Z,2.90
2018-09-28T09:09:03.347Z,1.60
2018-09-28T09:11:30.550Z,1.70
2018-09-28T09:13:57.847Z,0.87
2018-09-28T09:16:25.051Z,1.40
2018-09-28T09:18:52.248Z,1.40
2018-09-28T09:21:19.643Z,0.93
2018-09-28T09:23:46.892Z,0.30
2018-09-28T09:26:14.070Z,1.50
2018-09-28T09:28:41.426Z,1.40
2018-09-28T09:31:08.639Z,1.33
2018-09-28T09:33:35.837Z,1.73
2018-09-28T09:36:03.176Z,2.77
2018-09-28T09:38:30.359Z,2.57
2018-09-28T09:40:57.570Z,1.60
2018-09-28T09:43:24.803Z,1.40
2018-09-28T09:45:51.998Z,3.03
2018-09-28T09:48:19.204Z,2.30
2018-09-28T09:50:46.525Z,2.67
2018-09-28T09:53:13.721Z,1.03
2018-09-28T09:55:40.931Z,1.13
2018-09-28T09:58:08.305Z,0.70
2018-09-28T10:00:41.203Z,1.83
2018-09-28T10:03:14.309Z,1.13
2018-09-28T10:05:41.570Z,0.40
2018-09-28T10:08:08.771Z,0.63
2018-09-28T10:10:36.044Z,2.10
2018-09-28T10:13:03.277Z,0.80
2018-09-28T10:15:30.489Z,1.13
2018-09-28T10:17:57.799Z,2.37
2018-09-28T10:20:25.007Z,1.20
2018-09-28T10:22:52.227Z,2.27
2018-09-28T10:25:19.563Z,2.23
2018-09-28T10:27:46.788Z,3.37
2018-09-28T10:30:14.054Z,1.17
2018-09-28T10:32:41.511Z,3.13
2018-09-28T10:35:08.725Z,3.07
2018-09-28T10:37:36.006Z,3.77
2018-09-28T10:40:03.493Z,2.73
2018-09-28T10:42:30.740Z,2.80
2018-09-28T10:44:57.952Z,2.00
2018-09-28T10:47:25.380Z,1.60
2018-09-28T10:49:52.607Z,4.73
2018-09-28T10:52:19.912Z,1.57
2018-09-28T10:54:47.164Z,3.93
2018-09-28T10:57:14.397Z,3.10
2018-09-28T10:59:41.605Z,2.13
2018-09-28T11:02:08.928Z,3.80
2018-09-28T11:04:36.153Z,3.00
2018-09-28T11:07:03.353Z,4.23
2018-09-28T11:09:30.660Z,6.37
2018-09-28T11:11:57.901Z,4.17
2018-09-28T11:14:25.104Z,3.70
2018-09-28T11:16:52.412Z,2.20
2018-09-28T11:19:19.598Z,3.37
2018-09-28T11:21:46.844Z,2.00
2018-09-28T11:24:14.138Z,4.23
2018-09-28T11:26:41.324Z,7.13
2018-09-28T11:29:08.597Z,1.70
2018-09-28T11:31:35.838Z,2.53
2018-09-28T11:34:03.045Z,1.97
2018-09-28T11:36:30.252Z,1.57
2018-09-28T11:38:57.471Z,4.23
2018-09-28T11:41:24.666Z,2.93
2018-09-28T11:43:51.866Z,1.90
2018-09-28T11:46:19.195Z,3.43
2018-09-28T11:48:46.488Z,2.33
2018-09-28T11:51:16.141Z,2.57
2018-09-28T11:53:46.431Z,5.60
2018-09-28T11:56:13.767Z,2.53
2018-09-28T11:58:41.038Z,1.27
2018-09-28T12:01:08.616Z,2.93
2018-09-28T12:03:35.851Z,2.40
2018-09-28T12:06:02.996Z,2.47
2018-09-28T12:08:30.322Z,2.30
2018-09-28T12:10:57.612Z,5.80
2018-09-28T12:13:24.793Z,3.03
2018-09-28T12:15:52.088Z,3.63
2018-09-28T12:18:19.287Z,4.93
2018-09-28T12:20:46.525Z,3.20
2018-09-28T12:23:13.759Z,2.80
2018-09-28T12:25:40.954Z,2.93
2018-09-28T12:28:08.143Z,4.87
2018-09-28T12:30:35.452Z,4.33
2018-09-28T12:33:02.646Z,1.93
2018-09-28T12:35:29.838Z,2.40
2018-09-28T12:37:57.074Z,2.53
2018-09-28T12:40:24.263Z,3.77
2018-09-28T12:42:51.540Z,4.27
2018-09-28T12:45:18.876Z,2.33
2018-09-28T12:47:46.019Z,2.00
2018-09-28T12:50:13.229Z,3.97
2018-09-28T12:52:40.535Z,1.63
2018-09-28T12:55:07.733Z,3.67
2018-09-28T12:57:34.935Z,5.00
2018-09-28T13:00:02.259Z,4.33
2018-09-28T13:02:29.466Z,2.70
2018-09-28T13:04:56.690Z,5.73
2018-09-28T13:07:24.020Z,1.47
2018-09-28T13:09:51.226Z,2.23
2018-09-28T13:12:18.453Z,2.70
2018-09-28T13:14:45.777Z,3.20
2018-09-28T13:17:12.955Z,3.63
2018-09-28T13:19:40.157Z,1.93
2018-09-28T13:22:07.497Z,1.90
2018-09-28T13:24:34.770Z,1.80
2018-09-28T13:27:01.937Z,2.77
2018-09-28T13:29:29.284Z,3.03
2018-09-28T13:31:56.482Z,2.33
2018-09-28T13:34:23.739Z,1.00
2018-09-28T13:36:51.107Z,2.83
2018-09-28T13:39:18.270Z,2.40
2018-09-28T13:41:45.454Z,1.20
2018-09-28T13:44:12.917Z,1.93
2018-09-28T13:46:40.212Z,2.27
2018-09-28T13:49:07.382Z,5.23
2018-09-28T13:51:34.675Z,2.17
2018-09-28T13:54:01.896Z,3.33
2018-09-28T13:56:29.159Z,2.20
2018-09-28T13:58:56.803Z,2.23
2018-09-28T14:01:24.010Z,3.50
2018-09-28T14:03:51.516Z,5.57
2018-09-28T14:06:18.791Z,1.83
2018-09-28T14:08:46.035Z,3.77
2018-09-28T14:11:13.331Z,1.97
2018-09-28T14:13:40.666Z,1.03
2018-09-28T14:16:07.985Z,2.27
2018-09-28T14:18:35.201Z,4.93
2018-09-28T14:21:02.537Z,5.50
2018-09-28T14:23:29.738Z,1.50
2018-09-28T14:25:56.940Z,2.33
2018-09-28T14:28:24.295Z,2.37
2018-09-28T14:30:51.604Z,2.70
2018-09-28T14:33:18.678Z,3.90
2018-09-28T14:35:45.965Z,2.70
2018-09-28T14:38:13.181Z,2.73
2018-09-28T14:40:40.532Z,3.70
2018-09-28T14:43:07.806Z,4.70
2018-09-28T14:45:35.024Z,2.90
2018-09-28T14:48:02.236Z,0.67
2018-09-28T14:50:29.561Z,1.23
2018-09-28T14:52:56.795Z,1.43
2018-09-28T14:55:24.003Z,2.17
2018-09-28T14:57:51.330Z,1.73
2018-09-28T15:00:18.662Z,3.17
2018-09-28T15:02:45.848Z,2.30
2018-09-28T15:05:13.167Z,2.77
2018-09-28T15:07:41.225Z,3.43
2018-09-28T15:10:08.428Z,2.60
2018-09-28T15:12:35.752Z,3.00
2018-09-28T15:15:02.974Z,2.23
2018-09-28T15:17:30.184Z,4.17
2018-09-28T15:19:57.428Z,2.33
2018-09-28T15:22:24.627Z,1.13
2018-09-28T15:24:51.816Z,4.77
2018-09-28T15:27:19.165Z,2.40
2018-09-28T15:29:46.466Z,2.33
2018-09-28T15:32:13.629Z,2.87
2018-09-28T15:34:40.995Z,2.90
2018-09-28T15:37:08.207Z,1.30
2018-09-28T15:39:35.417Z,1.67
2018-09-28T15:42:02.653Z,2.83
2018-09-28T15:44:29.885Z,0.67
2018-09-28T15:46:57.103Z,5.47
2018-09-28T15:49:24.442Z,2.87
2018-09-28T15:51:51.665Z,1.90
2018-09-28T15:54:18.859Z,2.73
2018-09-28T15:56:46.216Z,1.00
2018-09-28T15:59:13.435Z,3.20
2018-09-28T16:01:40.659Z,3.70
2018-09-28T16:04:07.981Z,0.50
2018-09-28T16:06:35.173Z,2.13
2018-09-28T16:09:02.524Z,2.83
2018-09-28T16:11:29.838Z,2.90
2018-09-28T16:13:57.048Z,2.43
2018-09-28T16:16:24.296Z,4.67
2018-09-28T16:18:51.626Z,1.13
2018-09-28T16:21:18.834Z,1.80
2018-09-28T16:23:46.031Z,0.93
2018-09-28T16:26:13.343Z,2.00
2018-09-28T16:28:40.643Z,2.03
2018-09-28T16:31:07.841Z,2.30
2018-09-28T16:33:35.502Z,3.07
2018-09-28T16:36:02.900Z,2.07
2018-09-28T16:38:29.973Z,3.97
2018-09-28T16:40:57.240Z,1.30
2018-09-28T16:43:24.430Z,2.63
2018-09-28T16:45:51.679Z,2.17
2018-09-28T16:48:18.978Z,1.43
2018-09-28T16:50:46.233Z,1.73
2018-09-28T16:53:13.495Z,2.63
2018-09-28T16:55:40.885Z,2.57
2018-09-28T16:58:08.199Z,1.80
2018-09-28T17:00:36.776Z,3.57
2018-09-28T17:03:04.127Z,0.87
2018-09-28T17:05:31.343Z,2.00
2018-09-28T17:07:58.550Z,3.03
2018-09-28T17:10:25.843Z,2.90
2018-09-28T17:12:53.130Z,3.70
2018-09-28T17:15:20.380Z,8.07
2018-09-28T17:17:47.724Z,1.43
2018-09-28T17:20:15.080Z,2.87
2018-09-28T17:22:42.330Z,2.13
2018-09-28T17:25:09.648Z,2.57
2018-09-28T17:27:37.787Z,1.63
2018-09-28T17:30:05.033Z,1.87
2018-09-28T17:32:32.420Z,3.67
2018-09-28T17:34:59.677Z,1.43
2018-09-28T17:37:26.827Z,1.43
2018-09-28T17:39:54.139Z,0.30
2018-09-28T17:42:21.326Z,0.77
2018-09-28T17:44:48.524Z,1.13
2018-09-28T17:47:15.852Z,1.03
2018-09-28T17:49:43.058Z,3.00
2018-09-28T17:52:10.291Z,1.20
2018-09-28T17:54:37.596Z,0.63
2018-09-28T17:57:04.813Z,1.17
2018-09-28T17:59:32.089Z,1.80
2018-09-28T18:01:59.405Z,0.43
2018-09-28T18:04:26.625Z,1.37
2018-09-28T18:06:53.846Z,1.23
2018-09-28T18:09:21.100Z,0.97
2018-09-28T18:11:48.320Z,3.40
2018-09-28T18:14:15.638Z,1.17
2018-09-28T18:16:42.873Z,0.70
2018-09-28T18:19:10.077Z,1.20
2018-09-28T18:21:37.292Z,0.50
2018-09-28T18:24:04.600Z,2.00
2018-09-28T18:26:31.844Z,0.90
2018-09-28T18:28:59.084Z,1.77
2018-09-28T18:31:26.434Z,0.80
2018-09-28T18:33:53.647Z,1.13
2018-09-28T18:36:20.861Z,1.37
2018-09-28T18:38:48.321Z,1.87
2018-09-28T18:41:15.525Z,1.70
2018-09-28T18:43:42.741Z,0.73
2018-09-28T18:46:10.078Z,1.57
2018-09-28T18:48:37.348Z,1.23
2018-09-28T18:51:04.494Z,2.67
2018-09-28T18:53:31.894Z,1.13
2018-09-28T18:55:59.092Z,1.43
2018-09-28T18:58:26.300Z,2.10
2018-09-28T19:00:53.642Z,1.20
2018-09-28T19:03:20.882Z,1.13
2018-09-28T19:05:48.206Z,0.80
2018-09-28T19:08:15.447Z,1.43
2018-09-28T19:10:43.067Z,1.97
2018-09-28T19:13:10.432Z,0.87
2018-09-28T19:15:37.638Z,2.30
2018-09-28T19:18:04.850Z,2.53
2018-09-28T19:20:32.042Z,2.00
2018-09-28T19:22:59.407Z,1.10
2018-09-28T19:25:26.604Z,2.17
2018-09-28T19:27:53.807Z,1.87
2018-09-28T19:30:21.116Z,0.83
2018-09-28T19:32:48.318Z,1.47
2018-09-28T19:35:15.583Z,1.57
2018-09-28T19:37:42.884Z,2.90
2018-09-28T19:40:10.082Z,1.60
2018-09-28T19:42:37.311Z,1.67
2018-09-28T19:45:04.731Z,2.30
2018-09-28T19:47:31.917Z,0.80
2018-09-28T19:49:59.137Z,1.03
2018-09-28T19:52:26.595Z,1.67
2018-09-28T19:54:53.803Z,1.30
2018-09-28T19:57:21.011Z,1.37
2018-09-28T19:59:48.335Z,2.00
2018-09-28T20:02:15.525Z,3.83
2018-09-28T20:04:42.718Z,3.40
2018-09-28T20:07:10.028Z,3.33
2018-09-28T20:09:37.246Z,1.73
2018-09-28T20:12:04.846Z,2.67
2018-09-28T20:14:32.202Z,2.80
2018-09-28T20:16:59.531Z,1.50
2018-09-28T20:19:26.725Z,2.37
2018-09-28T20:21:53.953Z,1.87
2018-09-28T20:24:21.171Z,3.20
2018-09-28T20:26:48.383Z,3.83
2018-09-28T20:29:15.711Z,5.30
2018-09-28T20:31:42.955Z,2.47
2018-09-28T20:34:10.143Z,2.33
2018-09-28T20:36:37.519Z,2.80
2018-09-28T20:39:07.765Z,2.00
2018-09-28T20:41:35.015Z,1.87
2018-09-28T20:44:02.252Z,1.80
2018-09-28T20:46:29.451Z,2.97
2018-09-28T20:48:56.725Z,1.83
2018-09-28T20:51:23.919Z,1.37
2018-09-28T20:53:51.131Z,3.30
2018-09-28T20:56:18.318Z,4.27
2018-09-28T20:58:45.625Z,2.30
2018-09-28T21:01:19.575Z,1.33
2018-09-28T21:03:46.807Z,2.57
2018-09-28T21:06:14.059Z,1.43
2018-09-28T21:08:41.267Z,2.60
2018-09-28T21:11:08.567Z,5.13
2018-09-28T21:13:35.901Z,2.43
2018-09-28T21:16:03.007Z,1.40
2018-09-28T21:18:30.322Z,3.57
2018-09-28T21:20:57.538Z,3.10
2018-09-28T21:23:24.759Z,2.03
2018-09-28T21:25:51.992Z,1.07
2018-09-28T21:28:19.196Z,1.47
2018-09-28T21:30:46.374Z,4.93
2018-09-28T21:33:13.697Z,2.57
2018-09-28T21:35:40.895Z,2.07
2018-09-28T21:38:08.114Z,1.07
2018-09-28T21:40:35.430Z,2.00
2018-09-28T21:43:02.664Z,1.77
2018-09-28T21:45:29.858Z,2.67
2018-09-28T21:47:57.233Z,3.10
2018-09-28T21:50:24.444Z,3.57
2018-09-28T21:52:52.067Z,4.60
2018-09-28T21:55:19.388Z,2.07
2018-09-28T21:57:46.577Z,2.50
2018-09-28T22:00:13.842Z,2.77
2018-09-28T22:02:41.073Z,1.10
2018-09-28T22:05:08.327Z,4.30
2018-09-28T22:07:35.514Z,1.90
2018-09-28T22:10:02.847Z,4.00
2018-09-28T22:12:30.051Z,1.80
2018-09-28T22:14:57.253Z,3.80
2018-09-28T22:17:24.477Z,2.97
2018-09-28T22:19:51.671Z,1.90
2018-09-28T22:22:18.883Z,1.20
2018-09-28T22:24:46.228Z,3.90
2018-09-28T22:27:13.420Z,3.77
2018-09-28T22:29:40.654Z,3.60
2018-09-28T22:32:07.947Z,3.40
2018-09-28T22:34:35.140Z,2.97
2018-09-28T22:37:02.347Z,1.73
2018-09-28T22:39:29.579Z,2.20
2018-09-28T22:41:56.855Z,3.43
2018-09-28T22:44:24.070Z,1.10
2018-09-28T22:46:51.410Z,2.23
2018-09-28T22:49:18.615Z,3.50
2018-09-28T22:51:45.813Z,3.20
2018-09-28T22:54:13.164Z,2.73
2018-09-28T22:56:40.418Z,0.63
2018-09-28T22:59:07.618Z,2.10
2018-09-28T23:01:34.952Z,2.47
2018-09-28T23:04:02.159Z,2.33
2018-09-28T23:06:29.366Z,2.20
2018-09-28T23:08:56.686Z,2.13
2018-09-28T23:11:23.871Z,1.03
2018-09-28T23:13:51.069Z,1.10
2018-09-28T23:16:18.296Z,2.33
2018-09-28T23:18:45.626Z,3.20
2018-09-28T23:21:12.832Z,1.63
2018-09-28T23:23:40.162Z,1.23
2018-09-28T23:26:07.358Z,0.73
2018-09-28T23:28:34.555Z,3.07
2018-09-28T23:31:01.859Z,1.43
2018-09-28T23:33:29.093Z,1.77
2018-09-28T23:35:56.314Z,1.47
2018-09-28T23:38:23.651Z,3.00
2018-09-28T23:40:50.862Z,1.33
2018-09-28T23:43:18.068Z,1.20
2018-09-28T23:45:45.415Z,5.30
2018-09-28T23:48:12.618Z,1.40
2018-09-28T23:50:39.824Z,1.87
2018-09-28T23:53:07.122Z,1.37
2018-09-28T23:55:34.311Z,0.97
2018-09-28T23:58:01.499Z,2.30
